sensor_id;sensor_type;location;lat;lon;timestamp;P1;durP1;ratioP1;P2;durP2;ratioP2
16033;SDS011;8121;51.418;6.998;2023-07-29T00:04:36;2.07;;;0.90;;
16033;SDS011;8121;51.418;6.998;2023-07-29T00:09:37;1.20;;;1.10;;
16033;SDS011;8121;51.418;6.998;2023-07-29T00:14:40;1.33;;;1.23;;
16033;SDS011;8121;51.418;6.998;2023-07-29T00:19:42;0.87;;;0.87;;
16033;SDS011;8121;51.418;6.998;2023-07-29T00:24:43;0.93;;;0.90;;
16033;SDS011;8121;51.418;6.998;2023-07-29T00:29:46;1.10;;;1.00;;
16033;SDS011;8121;51.418;6.998;2023-07-29T00:34:48;1.27;;;1.17;;
16033;SDS011;8121;51.418;6.998;2023-07-29T00:39:49;1.07;;;0.97;;
16033;SDS011;8121;51.418;6.998;2023-07-29T00:44:52;2.50;;;1.00;;
16033;SDS011;8121;51.418;6.998;2023-07-29T00:49:53;1.37;;;1.27;;
16033;SDS011;8121;51.418;6.998;2023-07-29T00:54:55;1.30;;;1.20;;
16033;SDS011;8121;51.418;6.998;2023-07-29T00:59:58;1.10;;;1.00;;
16033;SDS011;8121;51.418;6.998;2023-07-29T01:05:00;1.30;;;1.17;;
16033;SDS011;8121;51.418;6.998;2023-07-29T01:10:02;1.60;;;1.50;;
16033;SDS011;8121;51.418;6.998;2023-07-29T01:15:10;1.30;;;1.20;;
16033;SDS011;8121;51.418;6.998;2023-07-29T01:20:15;1.10;;;1.00;;
16033;SDS011;8121;51.418;6.998;2023-07-29T01:25:18;1.20;;;1.10;;
16033;SDS011;8121;51.418;6.998;2023-07-29T01:30:20;1.00;;;0.90;;
16033;SDS011;8121;51.418;6.998;2023-07-29T01:35:24;1.23;;;1.13;;
16033;SDS011;8121;51.418;6.998;2023-07-29T01:40:29;1.07;;;0.97;;
16033;SDS011;8121;51.418;6.998;2023-07-29T01:45:31;1.37;;;1.27;;
16033;SDS011;8121;51.418;6.998;2023-07-29T01:50:36;0.90;;;0.90;;
16033;SDS011;8121;51.418;6.998;2023-07-29T01:55:39;1.10;;;1.00;;
16033;SDS011;8121;51.418;6.998;2023-07-29T02:00:41;0.83;;;0.83;;
16033;SDS011;8121;51.418;6.998;2023-07-29T02:05:43;0.90;;;0.90;;
16033;SDS011;8121;51.418;6.998;2023-07-29T02:10:46;1.47;;;1.37;;
16033;SDS011;8121;51.418;6.998;2023-07-29T02:15:48;1.07;;;1.00;;
16033;SDS011;8121;51.418;6.998;2023-07-29T02:20:50;1.30;;;1.20;;
16033;SDS011;8121;51.418;6.998;2023-07-29T02:25:53;1.57;;;0.97;;
16033;SDS011;8121;51.418;6.998;2023-07-29T02:31:08;2.87;;;0.93;;
16033;SDS011;8121;51.418;6.998;2023-07-29T02:36:12;1.27;;;1.00;;
16033;SDS011;8121;51.418;6.998;2023-07-29T02:41:15;1.63;;;1.10;;
16033;SDS011;8121;51.418;6.998;2023-07-29T02:46:16;2.20;;;1.30;;
16033;SDS011;8121;51.418;6.998;2023-07-29T02:51:18;1.67;;;1.10;;
16033;SDS011;8121;51.418;6.998;2023-07-29T02:56:21;2.03;;;1.10;;
16033;SDS011;8121;51.418;6.998;2023-07-29T03:01:23;2.17;;;2.07;;
16033;SDS011;8121;51.418;6.998;2023-07-29T03:06:25;0.90;;;0.90;;
16033;SDS011;8121;51.418;6.998;2023-07-29T03:11:28;2.03;;;1.13;;
16033;SDS011;8121;51.418;6.998;2023-07-29T03:16:31;1.40;;;1.30;;
16033;SDS011;8121;51.418;6.998;2023-07-29T03:21:32;2.80;;;1.10;;
16033;SDS011;8121;51.418;6.998;2023-07-29T03:26:35;0.90;;;0.90;;
16033;SDS011;8121;51.418;6.998;2023-07-29T03:31:36;0.70;;;0.70;;
16033;SDS011;8121;51.418;6.998;2023-07-29T03:36:38;1.00;;;0.90;;
16033;SDS011;8121;51.418;6.998;2023-07-29T03:41:42;1.47;;;1.37;;
16033;SDS011;8121;51.418;6.998;2023-07-29T03:46:43;3.63;;;1.27;;
16033;SDS011;8121;51.418;6.998;2023-07-29T03:51:45;1.77;;;1.10;;
16033;SDS011;8121;51.418;6.998;2023-07-29T03:56:48;1.23;;;1.13;;
16033;SDS011;8121;51.418;6.998;2023-07-29T04:01:49;1.47;;;1.37;;
16033;SDS011;8121;51.418;6.998;2023-07-29T04:06:51;1.53;;;1.43;;
16033;SDS011;8121;51.418;6.998;2023-07-29T04:11:54;1.27;;;1.17;;
16033;SDS011;8121;51.418;6.998;2023-07-29T04:16:55;1.20;;;1.03;;
16033;SDS011;8121;51.418;6.998;2023-07-29T04:21:57;1.70;;;1.60;;
16033;SDS011;8121;51.418;6.998;2023-07-29T04:27:00;1.53;;;1.43;;
16033;SDS011;8121;51.418;6.998;2023-07-29T04:32:01;2.37;;;2.17;;
16033;SDS011;8121;51.418;6.998;2023-07-29T04:37:02;1.80;;;1.70;;
16033;SDS011;8121;51.418;6.998;2023-07-29T04:42:06;1.90;;;1.70;;
16033;SDS011;8121;51.418;6.998;2023-07-29T04:47:07;2.20;;;2.10;;
16033;SDS011;8121;51.418;6.998;2023-07-29T04:52:09;2.40;;;2.20;;
16033;SDS011;8121;51.418;6.998;2023-07-29T04:57:12;2.47;;;2.37;;
16033;SDS011;8121;51.418;6.998;2023-07-29T05:02:13;2.90;;;2.70;;
16033;SDS011;8121;51.418;6.998;2023-07-29T05:07:15;3.83;;;3.57;;
16033;SDS011;8121;51.418;6.998;2023-07-29T05:12:18;4.30;;;3.83;;
16033;SDS011;8121;51.418;6.998;2023-07-29T05:17:19;3.77;;;3.47;;
16033;SDS011;8121;51.418;6.998;2023-07-29T05:22:21;3.10;;;2.90;;
16033;SDS011;8121;51.418;6.998;2023-07-29T05:27:24;3.40;;;3.10;;
16033;SDS011;8121;51.418;6.998;2023-07-29T05:32:25;4.07;;;3.77;;
16033;SDS011;8121;51.418;6.998;2023-07-29T05:37:26;4.93;;;4.60;;
16033;SDS011;8121;51.418;6.998;2023-07-29T05:42:29;6.47;;;5.07;;
16033;SDS011;8121;51.418;6.998;2023-07-29T05:47:31;5.77;;;3.80;;
16033;SDS011;8121;51.418;6.998;2023-07-29T05:52:32;4.40;;;4.00;;
16033;SDS011;8121;51.418;6.998;2023-07-29T05:57:35;2.80;;;2.53;;
16033;SDS011;8121;51.418;6.998;2023-07-29T06:02:37;4.17;;;3.53;;
16033;SDS011;8121;51.418;6.998;2023-07-29T06:07:39;2.00;;;1.90;;
16033;SDS011;8121;51.418;6.998;2023-07-29T06:12:45;1.77;;;1.67;;
16033;SDS011;8121;51.418;6.998;2023-07-29T06:17:47;2.27;;;2.07;;
16033;SDS011;8121;51.418;6.998;2023-07-29T06:22:48;2.03;;;1.80;;
16033;SDS011;8121;51.418;6.998;2023-07-29T06:27:51;1.33;;;1.23;;
16033;SDS011;8121;51.418;6.998;2023-07-29T06:32:52;3.80;;;1.73;;
16033;SDS011;8121;51.418;6.998;2023-07-29T06:37:54;3.57;;;2.10;;
16033;SDS011;8121;51.418;6.998;2023-07-29T06:42:57;3.20;;;2.07;;
16033;SDS011;8121;51.418;6.998;2023-07-29T06:47:59;2.40;;;2.07;;
16033;SDS011;8121;51.418;6.998;2023-07-29T06:53:00;1.67;;;1.57;;
16033;SDS011;8121;51.418;6.998;2023-07-29T06:58:03;3.83;;;2.53;;
16033;SDS011;8121;51.418;6.998;2023-07-29T07:03:04;2.83;;;1.30;;
16033;SDS011;8121;51.418;6.998;2023-07-29T07:08:06;2.63;;;1.43;;
16033;SDS011;8121;51.418;6.998;2023-07-29T07:13:09;1.30;;;1.17;;
16033;SDS011;8121;51.418;6.998;2023-07-29T07:18:10;1.13;;;1.03;;
16033;SDS011;8121;51.418;6.998;2023-07-29T07:23:12;1.93;;;0.90;;
16033;SDS011;8121;51.418;6.998;2023-07-29T07:28:14;1.70;;;1.60;;
16033;SDS011;8121;51.418;6.998;2023-07-29T07:33:17;6.30;;;1.70;;
16033;SDS011;8121;51.418;6.998;2023-07-29T07:38:19;1.90;;;1.50;;
16033;SDS011;8121;51.418;6.998;2023-07-29T07:43:22;1.10;;;1.00;;
16033;SDS011;8121;51.418;6.998;2023-07-29T07:48:23;1.53;;;1.00;;
16033;SDS011;8121;51.418;6.998;2023-07-29T07:53:25;1.53;;;1.43;;
16033;SDS011;8121;51.418;6.998;2023-07-29T07:58:28;1.67;;;1.20;;
16033;SDS011;8121;51.418;6.998;2023-07-29T08:03:29;1.40;;;1.30;;
16033;SDS011;8121;51.418;6.998;2023-07-29T08:08:31;1.50;;;1.40;;
16033;SDS011;8121;51.418;6.998;2023-07-29T08:13:34;0.90;;;0.90;;
16033;SDS011;8121;51.418;6.998;2023-07-29T08:18:35;0.90;;;0.80;;
16033;SDS011;8121;51.418;6.998;2023-07-29T08:23:37;1.27;;;1.17;;
16033;SDS011;8121;51.418;6.998;2023-07-29T08:28:39;1.30;;;1.20;;
16033;SDS011;8121;51.418;6.998;2023-07-29T08:33:41;1.20;;;1.10;;
16033;SDS011;8121;51.418;6.998;2023-07-29T08:38:42;1.10;;;1.00;;
16033;SDS011;8121;51.418;6.998;2023-07-29T08:43:48;1.10;;;1.00;;
16033;SDS011;8121;51.418;6.998;2023-07-29T08:48:51;3.37;;;1.40;;
16033;SDS011;8121;51.418;6.998;2023-07-29T08:53:53;0.93;;;0.93;;
16033;SDS011;8121;51.418;6.998;2023-07-29T08:58:56;1.10;;;1.03;;
16033;SDS011;8121;51.418;6.998;2023-07-29T09:04:00;1.67;;;0.73;;
16033;SDS011;8121;51.418;6.998;2023-07-29T09:09:01;1.00;;;0.90;;
16033;SDS011;8121;51.418;6.998;2023-07-29T09:14:04;1.37;;;1.27;;
16033;SDS011;8121;51.418;6.998;2023-07-29T09:19:06;1.37;;;1.27;;
16033;SDS011;8121;51.418;6.998;2023-07-29T09:24:08;1.10;;;1.00;;
16033;SDS011;8121;51.418;6.998;2023-07-29T09:29:11;3.47;;;1.30;;
16033;SDS011;8121;51.418;6.998;2023-07-29T09:34:12;1.40;;;1.30;;
16033;SDS011;8121;51.418;6.998;2023-07-29T09:39:16;2.70;;;1.20;;
16033;SDS011;8121;51.418;6.998;2023-07-29T09:44:19;0.83;;;0.80;;
16033;SDS011;8121;51.418;6.998;2023-07-29T09:49:21;1.13;;;1.00;;
16033;SDS011;8121;51.418;6.998;2023-07-29T09:54:23;0.70;;;0.70;;
16033;SDS011;8121;51.418;6.998;2023-07-29T09:59:26;1.30;;;1.20;;
16033;SDS011;8121;51.418;6.998;2023-07-29T10:04:28;0.80;;;0.73;;
16033;SDS011;8121;51.418;6.998;2023-07-29T10:09:30;1.10;;;1.00;;
16033;SDS011;8121;51.418;6.998;2023-07-29T10:14:34;0.80;;;0.80;;
16033;SDS011;8121;51.418;6.998;2023-07-29T10:19:36;2.30;;;0.87;;
16033;SDS011;8121;51.418;6.998;2023-07-29T10:24:38;1.13;;;1.03;;
16033;SDS011;8121;51.418;6.998;2023-07-29T10:29:42;0.80;;;0.77;;
16033;SDS011;8121;51.418;6.998;2023-07-29T10:34:45;0.70;;;0.60;;
16033;SDS011;8121;51.418;6.998;2023-07-29T10:39:51;1.30;;;1.20;;
16033;SDS011;8121;51.418;6.998;2023-07-29T10:44:55;1.30;;;1.20;;
16033;SDS011;8121;51.418;6.998;2023-07-29T10:49:57;1.00;;;0.90;;
16033;SDS011;8121;51.418;6.998;2023-07-29T10:54:59;0.93;;;0.90;;
16033;SDS011;8121;51.418;6.998;2023-07-29T11:00:03;3.83;;;1.00;;
16033;SDS011;8121;51.418;6.998;2023-07-29T11:05:07;0.83;;;0.83;;
16033;SDS011;8121;51.418;6.998;2023-07-29T11:10:09;0.80;;;0.80;;
16033;SDS011;8121;51.418;6.998;2023-07-29T11:15:17;1.20;;;1.00;;
16033;SDS011;8121;51.418;6.998;2023-07-29T11:20:20;0.80;;;0.73;;
16033;SDS011;8121;51.418;6.998;2023-07-29T11:25:24;0.80;;;0.80;;
16033;SDS011;8121;51.418;6.998;2023-07-29T11:30:27;0.90;;;0.70;;
16033;SDS011;8121;51.418;6.998;2023-07-29T11:35:29;0.97;;;0.97;;
16033;SDS011;8121;51.418;6.998;2023-07-29T11:40:34;1.00;;;0.87;;
16033;SDS011;8121;51.418;6.998;2023-07-29T11:45:37;1.20;;;1.10;;
16033;SDS011;8121;51.418;6.998;2023-07-29T11:50:38;1.30;;;1.20;;
16033;SDS011;8121;51.418;6.998;2023-07-29T11:55:39;0.90;;;0.90;;
16033;SDS011;8121;51.418;6.998;2023-07-29T12:00:42;0.80;;;0.70;;
16033;SDS011;8121;51.418;6.998;2023-07-29T12:05:45;1.43;;;0.80;;
16033;SDS011;8121;51.418;6.998;2023-07-29T12:10:47;0.90;;;0.87;;
16033;SDS011;8121;51.418;6.998;2023-07-29T12:15:50;1.43;;;1.23;;
16033;SDS011;8121;51.418;6.998;2023-07-29T12:20:52;1.40;;;1.30;;
16033;SDS011;8121;51.418;6.998;2023-07-29T12:25:56;0.87;;;0.80;;
16033;SDS011;8121;51.418;6.998;2023-07-29T12:30:59;1.20;;;0.90;;
16033;SDS011;8121;51.418;6.998;2023-07-29T12:36:01;1.53;;;0.87;;
16033;SDS011;8121;51.418;6.998;2023-07-29T12:41:03;1.10;;;1.00;;
16033;SDS011;8121;51.418;6.998;2023-07-29T12:46:05;0.90;;;0.90;;
16033;SDS011;8121;51.418;6.998;2023-07-29T12:51:07;1.00;;;0.90;;
16033;SDS011;8121;51.418;6.998;2023-07-29T12:56:08;1.10;;;0.70;;
16033;SDS011;8121;51.418;6.998;2023-07-29T13:01:11;1.20;;;1.10;;
16033;SDS011;8121;51.418;6.998;2023-07-29T13:06:17;2.20;;;1.00;;
16033;SDS011;8121;51.418;6.998;2023-07-29T13:11:19;1.03;;;1.00;;
16033;SDS011;8121;51.418;6.998;2023-07-29T13:16:22;1.10;;;1.00;;
16033;SDS011;8121;51.418;6.998;2023-07-29T13:21:23;1.07;;;0.97;;
16033;SDS011;8121;51.418;6.998;2023-07-29T13:26:25;1.00;;;0.90;;
16033;SDS011;8121;51.418;6.998;2023-07-29T13:31:28;0.80;;;0.80;;
16033;SDS011;8121;51.418;6.998;2023-07-29T13:36:30;1.63;;;1.27;;
16033;SDS011;8121;51.418;6.998;2023-07-29T13:41:31;0.87;;;0.87;;
16033;SDS011;8121;51.418;6.998;2023-07-29T13:46:34;3.03;;;0.83;;
16033;SDS011;8121;51.418;6.998;2023-07-29T13:51:36;1.20;;;1.10;;
16033;SDS011;8121;51.418;6.998;2023-07-29T13:56:37;0.90;;;0.90;;
16033;SDS011;8121;51.418;6.998;2023-07-29T14:01:40;1.30;;;1.10;;
16033;SDS011;8121;51.418;6.998;2023-07-29T14:06:41;4.03;;;1.23;;
16033;SDS011;8121;51.418;6.998;2023-07-29T14:11:43;2.03;;;1.33;;
16033;SDS011;8121;51.418;6.998;2023-07-29T14:16:46;1.60;;;1.20;;
16033;SDS011;8121;51.418;6.998;2023-07-29T14:21:49;1.50;;;1.40;;
16033;SDS011;8121;51.418;6.998;2023-07-29T14:26:50;5.33;;;1.73;;
16033;SDS011;8121;51.418;6.998;2023-07-29T14:31:53;1.40;;;1.30;;
16033;SDS011;8121;51.418;6.998;2023-07-29T14:36:54;2.07;;;1.97;;
16033;SDS011;8121;51.418;6.998;2023-07-29T14:41:56;1.53;;;1.43;;
16033;SDS011;8121;51.418;6.998;2023-07-29T14:46:59;1.67;;;1.47;;
16033;SDS011;8121;51.418;6.998;2023-07-29T14:52:00;1.43;;;1.30;;
16033;SDS011;8121;51.418;6.998;2023-07-29T14:57:02;1.13;;;1.13;;
16033;SDS011;8121;51.418;6.998;2023-07-29T15:02:05;1.20;;;0.97;;
16033;SDS011;8121;51.418;6.998;2023-07-29T15:07:07;2.20;;;1.50;;
16033;SDS011;8121;51.418;6.998;2023-07-29T15:12:08;1.70;;;1.60;;
16033;SDS011;8121;51.418;6.998;2023-07-29T15:17:11;2.73;;;2.50;;
16033;SDS011;8121;51.418;6.998;2023-07-29T15:22:13;1.73;;;1.63;;
16033;SDS011;8121;51.418;6.998;2023-07-29T15:27:14;1.40;;;1.30;;
16033;SDS011;8121;51.418;6.998;2023-07-29T15:32:17;1.13;;;1.03;;
16033;SDS011;8121;51.418;6.998;2023-07-29T15:37:18;1.27;;;1.17;;
16033;SDS011;8121;51.418;6.998;2023-07-29T15:42:21;1.00;;;0.93;;
16033;SDS011;8121;51.418;6.998;2023-07-29T15:47:24;1.07;;;0.97;;
16033;SDS011;8121;51.418;6.998;2023-07-29T15:52:25;1.67;;;1.37;;
16033;SDS011;8121;51.418;6.998;2023-07-29T15:57:29;1.73;;;1.40;;
16033;SDS011;8121;51.418;6.998;2023-07-29T16:02:32;1.03;;;0.93;;
16033;SDS011;8121;51.418;6.998;2023-07-29T16:07:33;1.37;;;0.93;;
16033;SDS011;8121;51.418;6.998;2023-07-29T16:12:35;0.80;;;0.80;;
16033;SDS011;8121;51.418;6.998;2023-07-29T16:17:39;1.33;;;1.20;;
16033;SDS011;8121;51.418;6.998;2023-07-29T16:22:41;0.80;;;0.80;;
16033;SDS011;8121;51.418;6.998;2023-07-29T16:27:42;1.90;;;1.00;;
16033;SDS011;8121;51.418;6.998;2023-07-29T16:32:45;1.23;;;1.13;;
16033;SDS011;8121;51.418;6.998;2023-07-29T16:37:46;1.30;;;1.20;;
16033;SDS011;8121;51.418;6.998;2023-07-29T16:42:50;1.20;;;1.00;;
16033;SDS011;8121;51.418;6.998;2023-07-29T16:47:52;1.23;;;0.73;;
16033;SDS011;8121;51.418;6.998;2023-07-29T16:52:54;1.10;;;1.00;;
16033;SDS011;8121;51.418;6.998;2023-07-29T16:57:57;1.20;;;1.10;;
16033;SDS011;8121;51.418;6.998;2023-07-29T17:02:59;1.03;;;0.90;;
16033;SDS011;8121;51.418;6.998;2023-07-29T17:08:01;0.80;;;0.77;;
16033;SDS011;8121;51.418;6.998;2023-07-29T17:13:03;1.00;;;0.90;;
16033;SDS011;8121;51.418;6.998;2023-07-29T17:18:06;2.73;;;0.97;;
16033;SDS011;8121;51.418;6.998;2023-07-29T17:23:07;0.80;;;0.67;;
16033;SDS011;8121;51.418;6.998;2023-07-29T17:28:08;2.60;;;0.70;;
16033;SDS011;8121;51.418;6.998;2023-07-29T17:33:11;0.93;;;0.93;;
16033;SDS011;8121;51.418;6.998;2023-07-29T17:38:13;1.00;;;0.83;;
16033;SDS011;8121;51.418;6.998;2023-07-29T17:43:14;0.70;;;0.70;;
16033;SDS011;8121;51.418;6.998;2023-07-29T17:48:17;0.90;;;0.90;;
16033;SDS011;8121;51.418;6.998;2023-07-29T17:53:18;1.73;;;1.10;;
16033;SDS011;8121;51.418;6.998;2023-07-29T17:58:20;5.27;;;2.30;;
16033;SDS011;8121;51.418;6.998;2023-07-29T18:03:23;1.17;;;0.93;;
16033;SDS011;8121;51.418;6.998;2023-07-29T18:08:24;0.90;;;0.80;;
16033;SDS011;8121;51.418;6.998;2023-07-29T18:13:26;0.90;;;0.60;;
16033;SDS011;8121;51.418;6.998;2023-07-29T18:18:29;0.80;;;0.80;;
16033;SDS011;8121;51.418;6.998;2023-07-29T18:23:30;0.83;;;0.83;;
16033;SDS011;8121;51.418;6.998;2023-07-29T18:28:31;0.70;;;0.60;;
16033;SDS011;8121;51.418;6.998;2023-07-29T18:33:34;0.80;;;0.70;;
16033;SDS011;8121;51.418;6.998;2023-07-29T18:38:36;0.70;;;0.70;;
16033;SDS011;8121;51.418;6.998;2023-07-29T18:43:38;2.80;;;1.60;;
16033;SDS011;8121;51.418;6.998;2023-07-29T18:48:40;0.77;;;0.77;;
16033;SDS011;8121;51.418;6.998;2023-07-29T18:53:42;1.10;;;0.80;;
16033;SDS011;8121;51.418;6.998;2023-07-29T18:58:43;2.70;;;1.00;;
16033;SDS011;8121;51.418;6.998;2023-07-29T19:03:46;1.17;;;1.07;;
16033;SDS011;8121;51.418;6.998;2023-07-29T19:08:47;1.00;;;0.90;;
16033;SDS011;8121;51.418;6.998;2023-07-29T19:13:49;2.30;;;1.00;;
16033;SDS011;8121;51.418;6.998;2023-07-29T19:18:52;0.80;;;0.80;;
16033;SDS011;8121;51.418;6.998;2023-07-29T19:23:53;1.60;;;1.13;;
16033;SDS011;8121;51.418;6.998;2023-07-29T19:28:55;2.30;;;1.47;;
16033;SDS011;8121;51.418;6.998;2023-07-29T19:33:58;1.40;;;1.30;;
16033;SDS011;8121;51.418;6.998;2023-07-29T19:38:59;1.60;;;1.50;;
16033;SDS011;8121;51.418;6.998;2023-07-29T19:44:00;1.73;;;1.60;;
16033;SDS011;8121;51.418;6.998;2023-07-29T19:49:04;1.43;;;1.00;;
16033;SDS011;8121;51.418;6.998;2023-07-29T19:54:05;1.43;;;1.30;;
16033;SDS011;8121;51.418;6.998;2023-07-29T19:59:07;1.50;;;1.40;;
16033;SDS011;8121;51.418;6.998;2023-07-29T20:04:10;1.40;;;1.30;;
16033;SDS011;8121;51.418;6.998;2023-07-29T20:09:11;1.30;;;1.00;;
16033;SDS011;8121;51.418;6.998;2023-07-29T20:14:13;2.63;;;1.47;;
16033;SDS011;8121;51.418;6.998;2023-07-29T20:19:16;3.10;;;1.30;;
16033;SDS011;8121;51.418;6.998;2023-07-29T20:24:17;2.10;;;1.63;;
16033;SDS011;8121;51.418;6.998;2023-07-29T20:29:19;2.30;;;1.13;;
16033;SDS011;8121;51.418;6.998;2023-07-29T20:34:22;1.37;;;1.27;;
16033;SDS011;8121;51.418;6.998;2023-07-29T20:39:23;1.37;;;1.27;;
16033;SDS011;8121;51.418;6.998;2023-07-29T20:44:26;1.70;;;1.60;;
16033;SDS011;8121;51.418;6.998;2023-07-29T20:49:29;1.37;;;1.17;;
16033;SDS011;8121;51.418;6.998;2023-07-29T20:54:30;1.70;;;1.60;;
16033;SDS011;8121;51.418;6.998;2023-07-29T20:59:32;1.10;;;1.00;;
16033;SDS011;8121;51.418;6.998;2023-07-29T21:04:35;2.13;;;1.47;;
16033;SDS011;8121;51.418;6.998;2023-07-29T21:09:36;1.30;;;0.90;;
16033;SDS011;8121;51.418;6.998;2023-07-29T21:14:38;2.43;;;1.40;;
16033;SDS011;8121;51.418;6.998;2023-07-29T21:19:41;2.63;;;1.70;;
16033;SDS011;8121;51.418;6.998;2023-07-29T21:24:42;1.40;;;1.30;;
16033;SDS011;8121;51.418;6.998;2023-07-29T21:29:44;1.20;;;1.10;;
16033;SDS011;8121;51.418;6.998;2023-07-29T21:34:47;6.70;;;1.70;;
16033;SDS011;8121;51.418;6.998;2023-07-29T21:39:48;1.40;;;1.30;;
16033;SDS011;8121;51.418;6.998;2023-07-29T21:44:50;1.73;;;1.63;;
16033;SDS011;8121;51.418;6.998;2023-07-29T21:49:53;3.10;;;1.67;;
16033;SDS011;8121;51.418;6.998;2023-07-29T21:54:54;2.20;;;1.90;;
16033;SDS011;8121;51.418;6.998;2023-07-29T21:59:56;3.77;;;2.13;;
16033;SDS011;8121;51.418;6.998;2023-07-29T22:04:58;1.67;;;1.57;;
16033;SDS011;8121;51.418;6.998;2023-07-29T22:10:00;2.03;;;1.77;;
16033;SDS011;8121;51.418;6.998;2023-07-29T22:15:01;2.53;;;1.40;;
16033;SDS011;8121;51.418;6.998;2023-07-29T22:20:06;1.30;;;1.20;;
16033;SDS011;8121;51.418;6.998;2023-07-29T22:25:09;2.20;;;2.00;;
16033;SDS011;8121;51.418;6.998;2023-07-29T22:30:11;2.00;;;1.80;;
16033;SDS011;8121;51.418;6.998;2023-07-29T22:35:15;1.90;;;1.30;;
16033;SDS011;8121;51.418;6.998;2023-07-29T22:40:17;2.30;;;1.60;;
16033;SDS011;8121;51.418;6.998;2023-07-29T22:45:19;1.53;;;1.43;;
16033;SDS011;8121;51.418;6.998;2023-07-29T22:50:22;2.27;;;1.40;;
16033;SDS011;8121;51.418;6.998;2023-07-29T22:55:24;1.73;;;1.43;;
16033;SDS011;8121;51.418;6.998;2023-07-29T23:00:25;1.30;;;1.20;;
16033;SDS011;8121;51.418;6.998;2023-07-29T23:05:28;1.97;;;1.87;;
16033;SDS011;8121;51.418;6.998;2023-07-29T23:10:30;1.47;;;1.33;;
16033;SDS011;8121;51.418;6.998;2023-07-29T23:15:33;1.70;;;1.60;;
16033;SDS011;8121;51.418;6.998;2023-07-29T23:20:36;1.50;;;1.40;;
16033;SDS011;8121;51.418;6.998;2023-07-29T23:25:37;1.60;;;1.50;;
16033;SDS011;8121;51.418;6.998;2023-07-29T23:30:39;1.40;;;1.23;;
16033;SDS011;8121;51.418;6.998;2023-07-29T23:35:42;1.63;;;1.43;;
16033;SDS011;8121;51.418;6.998;2023-07-29T23:40:44;2.60;;;1.37;;
16033;SDS011;8121;51.418;6.998;2023-07-29T23:45:46;1.87;;;1.30;;
16033;SDS011;8121;51.418;6.998;2023-07-29T23:50:49;1.27;;;1.13;;
16033;SDS011;8121;51.418;6.998;2023-07-29T23:55:50;1.87;;;1.30;;
